Latest Coastal Weather Observations for Hindmarsh Island

IDS60701

Issued at 6:51 am CDT Thursday 23 November 2017 (issued every 10 minutes, with the page automatically refreshed every 10 minutes)

About coastal observations | Map of coastal stations | Coastal observations for SA | Marine services | Other Formats
Station Details ID: 023894 Name: HINDMARSH ISLAND AWS Lat: -35.52 Lon: 138.82 Height: 11.0 m
Data from the previous 72 hours. | See also: Recent months at Hindmarsh Island
Date/Time
CDT
Temp
°C
Wind Pressure Rain since
9am
mm
Weather Cloud Vis
km
Sea
Height
m
Swell
Dir  Spd
kts
Gust
kts
hPa Trend Height
m
Period
s
Dir
23/06:30am 18.4 ESE 7 12 1009.5 - 1.2 - - - - - - -
23/06:00am 18.6 S 9 11 1008.7 - 1.0 Recent precip. - - - - - -
23/05:30am 18.6 W 1 5 1009.1 - 1.0 - - - - - - -
23/05:00am 18.5 WSW 4 8 1008.3 - 0.8 - - - - - - -
23/04:30am 18.5 S 6 7 1008.7 - 0.8 - - - - - - -
23/04:00am 18.6 SSW 7 10 1009.0 - 0.8 - - - - - - -
23/03:30am 18.6 SW 9 10 1009.1 - 0.8 - - - - - - -
23/03:00am 18.5 SSW 7 12 1009.2 - 0.8 Recent precip. - - - - - -
23/02:30am 18.4 SW 12 16 1009.1 - 0.8 - - - - - - -
23/02:00am 19.1 WSW 13 20 1009.9 - 0.2 - - - - - - -
23/01:30am 19.3 SW 9 13 1009.6 - 0.0 - - - - - - -
23/01:00am 19.9 SW 10 12 1009.8 - 0.0 - - - - - - -
23/12:30am 20.4 SSW 15 18 1009.1 - 0.0 - - - - - - -
23/12:00am 20.7 SSW 10 13 1010.1 - 0.0 - - - - - - -
 
Date/Time
CDT
Temp
°C
Wind Pressure Rain since
9am
mm
Weather Cloud Vis
km
Sea
Height
m
Swell
Dir  Spd
kts
Gust
kts
hPa Trend Height
m
Period
s
Dir
22/11:30pm 20.9 SSW 10 11 1010.2 - 0.0 - - - - - - -
22/11:00pm 21.8 WSW 4 6 1011.1 - 0.0 - - - - - - -
22/10:30pm 21.9 W 4 8 1010.9 - 0.0 - - - - - - -
22/10:00pm 22.5 WNW 5 6 1010.8 - 0.0 - - - - - - -
22/09:30pm 22.5 W 5 7 1010.5 - 0.0 - - - - - - -
22/09:00pm 22.2 W 6 7 1010.3 - 0.0 - - - - - - -
22/08:30pm 21.9 WSW 6 7 1009.8 - 0.0 - - - - - - -
22/08:00pm 21.8 WSW 7 8 1009.6 - 0.0 - - - - - - -
22/07:30pm 22.5 SW 9 10 1009.5 - 0.0 - - - - - - -
22/07:00pm 23.6 SW 8 10 1009.1 - 0.0 - - - - - - -
22/06:30pm 23.2 SW 8 9 1008.7 - 0.0 - - - - - - -
22/06:00pm 23.8 SSW 10 13 1008.4 - 0.0 - - - - - - -
22/05:30pm 24.1 WSW 11 14 1008.6 - 0.0 - - - - - - -
22/05:00pm 24.6 SW 14 18 1008.4 - 0.0 - - - - - - -
22/04:30pm 24.6 WSW 13 19 1008.5 - 0.0 - - - - - - -
22/04:00pm 24.3 WSW 16 20 1008.6 - 0.0 - - - - - - -
22/03:30pm 25.9 SW 17 22 1008.7 - 0.0 - - - - - - -
22/03:00pm 25.8 WSW 14 21 1009.1 - 0.0 - - - - - - -
22/02:30pm 25.4 SSW 15 19 1008.8 - 0.0 - - - - - - -
22/02:00pm 27.2 S 16 19 1008.5 - 0.0 - - - - - - -
22/01:30pm 27.1 S 17 19 1008.8 - 0.0 - - - - - - -
22/01:00pm 27.9 SSW 18 21 1009.2 - 0.0 - - - - - - -
22/12:48pm 29.6 SSW 15 22 1009.3 - 0.0 - - - - - - -
22/12:30pm 34.8 NW 6 14 1009.3 - 0.0 - - - - - - -
22/12:00pm 35.1 N 13 20 1009.7 - 0.0 - - - - - - -
22/11:30am 34.0 N 14 21 1010.0 - 0.0 - - - - - - -
22/11:08am 34.4 N 15 25 1010.3 - 0.0 - - - - - - -
22/11:00am 34.1 NNE 16 25 1010.3 - 0.0 - - - - - - -
22/10:30am 33.6 NNE 15 21 1010.3 - 0.0 - - - - - - -
22/10:00am 33.3 NNE 13 19 1010.4 - 0.0 - - - - - - -
22/09:30am 31.0 NNE 11 14 1010.8 - 0.0 - - - - - - -
22/09:00am 29.4 NNE 13 17 1011.1 - 0.0 - - - - - - -
22/08:30am 27.5 NE 12 16 1011.0 - 0.0 - - - - - - -
22/08:00am 25.3 NE 13 17 1011.1 - 0.0 - - - - - - -
22/07:30am 22.8 NE 9 13 1011.0 - 0.0 - - - - - - -
22/07:00am 21.1 NNE 10 13 1010.9 - 0.0 - - - - - - -
22/06:30am 20.1 NNE 9 12 1010.6 - 0.0 - - - - - - -
22/06:00am 20.1 NE 10 13 1010.3 - 0.0 - - - - - - -
22/05:30am 20.3 NNE 10 11 1010.1 - 0.0 - - - - - - -
22/05:00am 19.3 NNE 9 11 1009.9 - 0.0 - - - - - - -
22/04:30am 21.6 NNE 9 12 1009.6 - 0.0 - - - - - - -
22/04:00am 19.9 NE 8 10 1009.6 - 0.0 - - - - - - -
22/03:30am 20.8 NNE 7 8 1009.6 - 0.0 - - - - - - -
22/03:00am 21.0 NNE 7 8 1009.7 - 0.0 - - - - - - -
22/02:30am 20.6 NNE 8 9 1009.8 - 0.0 - - - - - - -
22/02:00am 21.5 NNE 9 11 1010.1 - 0.0 - - - - - - -
22/01:30am 21.5 NNE 7 8 1010.4 - 0.0 - - - - - - -
22/01:00am 22.6 NNE 8 10 1010.7 - 0.0 - - - - - - -
22/12:30am 23.8 NNE 9 12 1010.8 - 0.0 - - - - - - -
22/12:00am 24.7 NNE 11 13 1011.0 - 0.0 - - - - - - -
 
Date/Time
CDT
Temp
°C
Wind Pressure Rain since
9am
mm
Weather Cloud Vis
km
Sea
Height
m
Swell
Dir  Spd
kts
Gust
kts
hPa Trend Height
m
Period
s
Dir
21/11:30pm 24.8 NNE 11 12 1011.1 - 0.0 - - - - - - -
21/11:00pm 25.1 N 8 9 1011.6 - 0.0 - - - - - - -
21/10:30pm 25.3 N 6 7 1011.6 - 0.0 - - - - - - -
21/10:00pm 26.3 N 6 8 1011.7 - 0.0 - - - - - - -
21/09:30pm 26.7 NNW 5 8 1011.7 - 0.0 - - - - - - -
21/09:00pm 27.7 NE 10 14 1011.4 - 0.0 - - - - - - -
21/08:30pm 27.9 NE 10 13 1011.2 - 0.0 - - - - - - -
21/08:00pm 28.8 ENE 10 12 1011.0 - 0.0 - - - - - - -
21/07:30pm 31.5 ENE 8 10 1010.9 - 0.0 - - - - - - -
21/07:00pm 33.3 ENE 10 14 1010.6 - 0.0 - - - - - - -
21/06:30pm 33.9 NE 10 15 1010.6 - 0.0 - - - - - - -
21/06:00pm 34.3 NE 12 16 1010.5 - 0.0 - - - - - - -
21/05:30pm 34.4 NNE 11 16 1010.6 - 0.0 - - - - - - -
21/05:00pm 35.7 NE 13 24 1010.7 - 0.0 - - - - - - -
21/04:30pm 34.5 NNE 11 21 1010.9 - 0.0 - - - - - - -
21/04:00pm 34.7 NNE 14 19 1011.1 - 0.0 - - - - - - -
21/03:30pm 34.8 NE 9 15 1011.4 - 0.0 - - - - - - -
21/03:00pm 34.4 NE 12 16 1011.8 - 0.0 - - - - - - -
21/02:30pm 33.9 NNE 12 20 1012.1 - 0.0 - - - - - - -
21/02:00pm 35.2 NE 11 16 1012.4 - 0.0 - - - - - - -
21/01:30pm 33.3 NE 9 15 1012.9 - 0.0 - - - - - - -
21/01:00pm 34.1 NNE 14 20 1013.3 - 0.0 - - - - - - -
21/12:30pm 34.9 NNE 12 16 1013.6 - 0.0 - - - - - - -
21/12:00pm 33.2 N 12 17 1014.0 - 0.0 - - - - - - -
21/11:30am 33.8 N 13 19 1014.3 - 0.0 - - - - - - -
21/11:00am 33.0 N 14 20 1014.5 - 0.0 - - - - - - -
21/10:30am 32.3 N 14 20 1014.4 - 0.0 - - - - - - -
21/10:00am 31.9 NNE 12 15 1014.6 - 0.0 - - - - - - -
21/09:30am 30.5 NNE 12 15 1014.6 - 0.0 - - - - - - -
21/09:00am 28.7 NE 13 16 1014.8 - 0.0 - - - - - - -
21/08:30am 26.4 NNE 11 14 1014.8 - 0.0 - - - - - - -
21/08:00am 25.3 NE 11 15 1014.7 - 0.0 - - - - - - -
21/07:30am 24.0 NE 9 13 1014.8 - 0.0 - - - - - - -
21/07:00am 22.4 NE 11 13 1014.7 - 0.0 - - - - - - -
21/06:30am 21.3 NE 11 13 1014.5 - 0.0 - - - - - - -
21/06:00am 20.6 NE 11 13 1014.3 - 0.0 - - - - - - -
21/05:30am 20.6 NE 10 12 1014.1 - 0.0 - - - - - - -
21/05:00am 20.3 NE 10 11 1013.9 - 0.0 - - - - - - -
21/04:30am 21.4 NE 11 14 1013.8 - 0.0 - - - - - - -
21/04:00am 22.0 NE 11 13 1013.8 - 0.0 - - - - - - -
21/03:30am 21.4 NE 9 12 1013.9 - 0.0 - - - - - - -
21/03:00am 21.5 NE 10 12 1013.9 - 0.0 - - - - - - -
21/02:30am 21.2 NE 11 13 1013.8 - 0.0 - - - - - - -
21/02:00am 20.7 NE 10 12 1013.9 - 0.0 - - - - - - -
21/01:30am 22.0 NNE 9 11 1014.0 - 0.0 - - - - - - -
21/01:00am 21.8 NE 9 10 1014.1 - 0.0 - - - - - - -
21/12:30am 22.4 NNE 7 10 1014.1 - 0.0 - - - - - - -
21/12:00am 23.5 NNE 9 9 1014.2 - 0.0 - - - - - - -
 
Date/Time
CDT
Temp
°C
Wind Pressure Rain since
9am
mm
Weather Cloud Vis
km
Sea
Height
m
Swell
Dir  Spd
kts
Gust
kts
hPa Trend Height
m
Period
s
Dir
20/11:30pm 23.6 NNE 9 10 1014.2 - 0.0 - - - - - - -
20/11:00pm 23.6 NNE 9 11 1014.2 - 0.0 - - - - - - -
20/10:30pm 24.6 NNE 9 13 1014.0 - 0.0 - - - - - - -
20/10:00pm 26.2 NE 10 14 1014.0 - 0.0 - - - - - - -
20/09:30pm 26.7 NE 11 14 1013.6 - 0.0 - - - - - - -
20/09:00pm 26.9 ENE 11 13 1013.4 - 0.0 - - - - - - -
20/08:30pm 27.6 NE 11 13 1013.2 - 0.0 - - - - - - -
20/08:00pm 28.1 ENE 9 11 1013.0 - 0.0 - - - - - - -
20/07:30pm 30.2 ENE 12 15 1012.7 - 0.0 - - - - - - -
20/07:00pm 31.6 ENE 13 16 1012.5 - 0.0 - - - - - - -
20/06:30pm 32.8 ENE 14 19 1012.3 - 0.0 - - - - - - -
20/06:00pm 33.4 ENE 16 22 1012.2 - 0.0 - - - - - - -
20/05:30pm 32.7 ENE 14 20 1012.2 - 0.0 - - - - - - -
20/05:00pm 33.8 ENE 16 20 1012.4 - 0.0 - - - - - - -
20/04:30pm 33.9 ENE 15 22 1012.4 - 0.0 - - - - - - -
20/04:00pm 34.1 ENE 16 21 1012.6 - 0.0 - - - - - - -
20/03:30pm 34.3 ENE 16 22 1012.8 - 0.0 - - - - - - -
20/03:00pm 34.4 ENE 17 22 1013.1 - 0.0 - - - - - - -
20/02:30pm 34.2 ENE 17 24 1013.5 - 0.0 - - - - - - -
20/02:00pm 34.0 ENE 17 23 1013.7 - 0.0 - - - - - - -
20/01:30pm 33.4 ENE 15 22 1014.1 - 0.0 - - - - - - -
20/01:00pm 33.7 ENE 16 23 1014.5 - 0.0 - - - - - - -
20/12:30pm 33.0 NE 13 17 1014.9 - 0.0 - - - - - - -
20/12:00pm 32.4 NE 15 20 1015.2 - 0.0 - - - - - - -
20/11:30am 31.3 NNE 16 21 1015.6 - 0.0 - - - - - - -
20/11:00am 30.4 NNE 14 21 1015.8 - 0.0 - - - - - - -
20/10:30am 30.4 NE 15 19 1016.0 - 0.0 - - - - - - -
20/10:00am 28.6 NNE 15 21 1016.2 - 0.0 - - - - - - -
20/09:30am 27.4 NE 14 17 1016.4 - 0.0 - - - - - - -
20/09:00am 25.3 NE 14 19 1016.7 - 0.0 - - - - - - -
20/08:30am 24.3 NE 15 19 1016.7 - 0.0 - - - - - - -
20/08:00am 22.9 NE 14 19 1016.5 - 0.0 - - - - - - -
20/07:30am 21.6 NE 12 15 1016.4 - 0.0 - - - - - - -
20/07:00am 20.0 NE 11 13 1016.3 - 0.0 - - - - - - -

Other Formats:

Comma delimited format used in spreadsheet applications
http://www.bom.gov.au/fwo/IDS60701/IDS60701.94677.axf

JavaScript Object Notation format (JSON) in row-major order
http://www.bom.gov.au/fwo/IDS60701/IDS60701.94677.json